Time;durP1;ratioP1;P1;durP2;ratioP2;P2;SDS_P1;SDS_P2;PMS_P1;PMS_P2;Temp;Humidity;BMP_temperature;BMP_pressure;BME280_temperature;BME280_humidity;BME280_pressure;Samples;Min_cycle;Max_cycle;Signal;HPM_P1;HPM_P2
2023/09/04 00:00:58;;;;;;;3.90;2.42;;;;;;;;;;4987452;28;20485;-80
2023/09/04 00:03:26;;;;;;;2.88;2.63;;;;;;;;;;4996883;28;20046;-80
2023/09/04 00:05:52;;;;;;;5.50;2.95;;;;;;;;;;4985259;28;20038;-76
2023/09/04 00:08:18;;;;;;;4.82;2.65;;;;;;;;;;4978715;28;20559;-79
2023/09/04 00:10:44;;;;;;;4.50;2.58;;;;;;;;;;4986717;28;20026;-88
2023/09/04 00:13:11;;;;;;;54.88;34.97;;;;;;;;;;4982707;28;20030;-87
2023/09/04 00:15:38;;;;;;;3.33;2.25;;;;;;;;;;4985619;28;20116;-85
2023/09/04 00:18:04;;;;;;;6.30;3.97;;;;;;;;;;4977956;28;20492;-79
2023/09/04 00:20:30;;;;;;;2.08;1.88;;;;;;;;;;4982599;28;20512;-78
2023/09/04 00:22:56;;;;;;;2.70;2.40;;;;;;;;;;4980480;28;20054;-80
2023/09/04 00:25:22;;;;;;;4.57;2.28;;;;;;;;;;4985409;28;20039;-81
2023/09/04 00:27:49;;;;;;;3.80;2.10;;;;;;;;;;4989380;28;20399;-81
2023/09/04 00:30:15;;;;;;;5.97;1.98;;;;;;;;;;4984348;28;20037;-79
2023/09/04 00:32:41;;;;;;;4.32;2.70;;;;;;;;;;4984249;28;20034;-79
2023/09/04 00:35:08;;;;;;;2.53;2.33;;;;;;;;;;4988099;28;20194;-78
2023/09/04 00:37:34;;;;;;;4.00;2.22;;;;;;;;;;4984316;28;20654;-78
2023/09/04 00:40:00;;;;;;;3.65;2.92;;;;;;;;;;4982068;28;20038;-80
2023/09/04 00:42:29;;;;;;;4.28;2.50;;;;;;;;;;4994527;28;20031;-80
2023/09/04 00:44:56;;;;;;;2.78;2.58;;;;;;;;;;4977859;28;20052;-81
2023/09/04 00:47:23;;;;;;;4.55;2.58;;;;;;;;;;4979698;28;20039;-80
2023/09/04 00:49:49;;;;;;;6.22;3.95;;;;;;;;;;4979053;28;20034;-77
2023/09/04 00:52:15;;;;;;;98.55;65.97;;;;;;;;;;4983120;28;20038;-76
2023/09/04 00:54:42;;;;;;;29.75;21.13;;;;;;;;;;4984269;28;20026;-79
2023/09/04 00:57:08;;;;;;;3.45;3.15;;;;;;;;;;4986128;28;20050;-74
2023/09/04 00:59:34;;;;;;;6.22;3.10;;;;;;;;;;4984889;28;20121;-73
2023/09/04 01:02:01;;;;;;;5.07;2.65;;;;;;;;;;4985078;28;20030;-74
2023/09/04 01:04:27;;;;;;;2.63;2.42;;;;;;;;;;4985625;28;20547;-74
2023/09/04 01:06:54;;;;;;;2.78;2.50;;;;;;;;;;4998117;28;20665;-74
2023/09/04 01:09:21;;;;;;;4.25;3.08;;;;;;;;;;4986447;28;20058;-74
2023/09/04 01:12:09;;;;;;;3.45;2.65;;;;;;;;;;4982862;28;20105;-74
2023/09/04 01:14:36;;;;;;;3.28;2.97;;;;;;;;;;4981681;28;20038;-73
2023/09/04 01:17:03;;;;;;;2.67;2.47;;;;;;;;;;4983596;28;20341;-73
2023/09/04 01:19:29;;;;;;;3.38;2.85;;;;;;;;;;4987396;28;20038;-73
2023/09/04 01:21:55;;;;;;;2.70;2.50;;;;;;;;;;4980996;28;20042;-72
2023/09/04 01:24:21;;;;;;;3.60;2.90;;;;;;;;;;4983429;28;20026;-73
2023/09/04 01:26:58;;;;;;;3.85;2.95;;;;;;;;;;4983592;28;20500;-73
2023/09/04 01:29:31;;;;;;;4.60;2.83;;;;;;;;;;4982662;28;20125;-73
2023/09/04 01:32:03;;;;;;;3.13;2.83;;;;;;;;;;4974091;28;20061;-73
2023/09/04 01:34:31;;;;;;;3.92;3.10;;;;;;;;;;4985741;28;20082;-72
2023/09/04 01:36:57;;;;;;;3.08;2.78;;;;;;;;;;4980959;28;20401;-73
2023/09/04 01:39:24;;;;;;;3.00;2.50;;;;;;;;;;4977693;28;20042;-74
2023/09/04 01:41:51;;;;;;;5.20;2.83;;;;;;;;;;4977451;28;20042;-74
2023/09/04 01:44:17;;;;;;;5.00;2.95;;;;;;;;;;4985519;28;20030;-74
2023/09/04 01:46:43;;;;;;;4.57;2.63;;;;;;;;;;4977236;28;20117;-73
2023/09/04 01:49:09;;;;;;;2.58;2.35;;;;;;;;;;4988251;28;20030;-73
2023/09/04 01:51:35;;;;;;;3.97;2.50;;;;;;;;;;4979558;28;20096;-73
2023/09/04 01:54:01;;;;;;;4.05;2.95;;;;;;;;;;4981769;28;20042;-71
2023/09/04 01:56:27;;;;;;;4.07;2.63;;;;;;;;;;4984649;28;20039;-73
2023/09/04 01:58:53;;;;;;;4.70;2.70;;;;;;;;;;4983556;28;20081;-74
2023/09/04 02:01:19;;;;;;;3.67;2.90;;;;;;;;;;4977956;28;20026;-74
2023/09/04 02:03:54;;;;;;;2.70;2.22;;;;;;;;;;4985111;28;20046;-73
2023/09/04 02:06:20;;;;;;;3.85;2.50;;;;;;;;;;4974519;28;20152;-74
2023/09/04 02:08:47;;;;;;;4.25;2.25;;;;;;;;;;4987942;28;20077;-73
2023/09/04 02:11:13;;;;;;;4.05;3.05;;;;;;;;;;4982067;28;20054;-73
2023/09/04 02:13:39;;;;;;;4.68;2.70;;;;;;;;;;4984729;28;20042;-73
2023/09/04 02:16:05;;;;;;;2.95;2.47;;;;;;;;;;4980616;28;20026;-74
2023/09/04 02:18:31;;;;;;;2.53;2.28;;;;;;;;;;4985440;28;20777;-74
2023/09/04 02:21:00;;;;;;;3.72;2.70;;;;;;;;;;4971240;28;20031;-73
2023/09/04 02:23:26;;;;;;;2.38;2.17;;;;;;;;;;4979471;28;20119;-73
2023/09/04 02:25:52;;;;;;;2.90;2.53;;;;;;;;;;4986339;28;20190;-74
2023/09/04 02:28:18;;;;;;;2.88;2.42;;;;;;;;;;4981951;28;20031;-73
2023/09/04 02:30:44;;;;;;;4.07;2.60;;;;;;;;;;4981755;28;20049;-73
2023/09/04 02:33:11;;;;;;;2.92;2.60;;;;;;;;;;4973633;28;20069;-74
2023/09/04 02:35:37;;;;;;;3.65;2.80;;;;;;;;;;4988037;28;20041;-74
2023/09/04 02:38:03;;;;;;;2.63;2.40;;;;;;;;;;4982122;28;20480;-74
2023/09/04 02:40:29;;;;;;;2.92;2.40;;;;;;;;;;4997784;28;20038;-74
2023/09/04 02:42:55;;;;;;;3.35;2.88;;;;;;;;;;4976143;28;20133;-74
2023/09/04 02:45:22;;;;;;;4.78;2.85;;;;;;;;;;4978364;28;20408;-74
2023/09/04 02:47:48;;;;;;;2.78;2.20;;;;;;;;;;4995331;28;20064;-73
2023/09/04 02:50:14;;;;;;;3.70;2.63;;;;;;;;;;4981369;28;20081;-74
2023/09/04 02:52:40;;;;;;;2.42;2.22;;;;;;;;;;4988548;28;20026;-73
2023/09/04 02:55:06;;;;;;;2.20;2.00;;;;;;;;;;4978803;28;20035;-74
2023/09/04 02:57:33;;;;;;;3.22;2.45;;;;;;;;;;4982194;28;20746;-74
2023/09/04 02:59:59;;;;;;;5.60;2.67;;;;;;;;;;4986862;28;20448;-74
2023/09/04 03:02:25;;;;;;;2.75;2.40;;;;;;;;;;4993393;28;20038;-74
2023/09/04 03:04:55;;;;;;;3.67;2.75;;;;;;;;;;4982546;28;20049;-74
2023/09/04 03:07:27;;;;;;;5.03;2.83;;;;;;;;;;4991795;28;20113;-74
2023/09/04 03:09:57;;;;;;;4.80;3.22;;;;;;;;;;4984489;28;20097;-74
2023/09/04 03:12:32;;;;;;;3.40;2.50;;;;;;;;;;4989819;28;20030;-73
2023/09/04 03:14:59;;;;;;;3.92;2.47;;;;;;;;;;4981145;28;20038;-73
2023/09/04 03:17:27;;;;;;;4.13;2.50;;;;;;;;;;4982424;28;20077;-74
2023/09/04 03:19:53;;;;;;;4.28;2.85;;;;;;;;;;4986204;28;20044;-74
2023/09/04 03:22:19;;;;;;;3.38;2.80;;;;;;;;;;4988292;28;20194;-73
2023/09/04 03:24:46;;;;;;;3.55;2.78;;;;;;;;;;4991236;28;20038;-74
2023/09/04 03:27:12;;;;;;;4.43;2.55;;;;;;;;;;4986462;28;20031;-74
2023/09/04 03:29:38;;;;;;;2.72;2.50;;;;;;;;;;4988542;28;20030;-74
2023/09/04 03:32:04;;;;;;;2.80;2.35;;;;;;;;;;4985905;28;20067;-74
2023/09/04 03:34:31;;;;;;;4.20;2.58;;;;;;;;;;4979106;28;20034;-73
2023/09/04 03:36:57;;;;;;;6.70;2.70;;;;;;;;;;4979735;28;20045;-74
2023/09/04 03:39:24;;;;;;;3.70;2.97;;;;;;;;;;4976015;28;20038;-74
2023/09/04 03:41:50;;;;;;;3.08;2.67;;;;;;;;;;4982390;28;20022;-74
2023/09/04 03:44:16;;;;;;;3.58;2.63;;;;;;;;;;4989357;28;20524;-74
2023/09/04 03:46:42;;;;;;;4.40;3.10;;;;;;;;;;4985407;28;20041;-75
2023/09/04 03:49:08;;;;;;;3.03;2.60;;;;;;;;;;4974598;28;20038;-74
2023/09/04 03:51:34;;;;;;;4.00;3.03;;;;;;;;;;4997990;28;20117;-75
2023/09/04 03:54:03;;;;;;;4.38;3.13;;;;;;;;;;4975665;28;20085;-74
2023/09/04 03:56:30;;;;;;;2.65;2.45;;;;;;;;;;4980921;28;21872;-75
2023/09/04 03:58:57;;;;;;;3.42;3.00;;;;;;;;;;4988548;28;20034;-75
2023/09/04 04:01:23;;;;;;;3.28;2.97;;;;;;;;;;4983619;28;20038;-75
2023/09/04 04:03:53;;;;;;;3.53;3.22;;;;;;;;;;4983314;28;20065;-76
2023/09/04 04:06:22;;;;;;;7.30;3.33;;;;;;;;;;4979242;28;20066;-75
2023/09/04 04:08:52;;;;;;;4.35;3.40;;;;;;;;;;4988530;28;20062;-75
2023/09/04 04:11:21;;;;;;;3.25;2.95;;;;;;;;;;4983532;28;20058;-75
2023/09/04 04:13:48;;;;;;;3.92;3.63;;;;;;;;;;4988425;28;20034;-75
2023/09/04 04:16:14;;;;;;;3.42;3.13;;;;;;;;;;4977522;28;20354;-75
2023/09/04 04:18:40;;;;;;;5.30;3.17;;;;;;;;;;4985637;28;20072;-75
2023/09/04 04:21:06;;;;;;;5.90;3.17;;;;;;;;;;4985137;28;20031;-76
2023/09/04 04:23:35;;;;;;;4.93;2.55;;;;;;;;;;4986795;28;20420;-76
2023/09/04 04:26:01;;;;;;;2.78;2.53;;;;;;;;;;4978784;28;20054;-73
2023/09/04 04:28:27;;;;;;;4.15;2.80;;;;;;;;;;4985519;28;20038;-76
2023/09/04 04:30:54;;;;;;;4.40;2.67;;;;;;;;;;4983416;28;20038;-76
2023/09/04 04:33:21;;;;;;;3.83;2.55;;;;;;;;;;4987947;28;20516;-75
2023/09/04 04:35:52;;;;;;;3.20;2.35;;;;;;;;;;4979497;28;20093;-73
2023/09/04 04:38:18;;;;;;;4.68;2.33;;;;;;;;;;4983729;28;20037;-73
2023/09/04 04:40:44;;;;;;;3.67;2.47;;;;;;;;;;4986673;28;20038;-74
2023/09/04 04:43:10;;;;;;;6.90;2.17;;;;;;;;;;4989200;28;20158;-74
2023/09/04 04:45:36;;;;;;;7.15;2.70;;;;;;;;;;4980693;28;20073;-73
2023/09/04 04:48:03;;;;;;;4.13;2.38;;;;;;;;;;4980359;28;20065;-73
2023/09/04 04:50:29;;;;;;;2.75;1.98;;;;;;;;;;4989474;28;20136;-73
2023/09/04 04:52:55;;;;;;;3.88;2.25;;;;;;;;;;4983902;28;20955;-73
2023/09/04 04:55:21;;;;;;;3.05;2.45;;;;;;;;;;4982830;28;20030;-74
2023/09/04 04:57:47;;;;;;;2.25;1.90;;;;;;;;;;4977875;28;20070;-74
2023/09/04 05:00:14;;;;;;;2.45;1.60;;;;;;;;;;4981723;28;20042;-74
2023/09/04 05:02:40;;;;;;;3.10;2.17;;;;;;;;;;4983250;28;20082;-74
2023/09/04 05:05:08;;;;;;;2.28;1.65;;;;;;;;;;4983183;28;20451;-74
2023/09/04 05:07:34;;;;;;;3.45;2.40;;;;;;;;;;4979862;28;20038;-74
2023/09/04 05:10:00;;;;;;;4.15;1.85;;;;;;;;;;4976633;28;20034;-74
2023/09/04 05:12:26;;;;;;;7.90;2.15;;;;;;;;;;4984334;28;20061;-74
2023/09/04 05:14:53;;;;;;;9.65;2.50;;;;;;;;;;4977285;28;20109;-73
2023/09/04 05:17:19;;;;;;;2.90;2.50;;;;;;;;;;4984222;28;20520;-75
2023/09/04 05:19:45;;;;;;;4.78;2.47;;;;;;;;;;4984407;28;20167;-74
2023/09/04 05:22:11;;;;;;;6.40;2.47;;;;;;;;;;4983641;28;20038;-73
2023/09/04 05:24:37;;;;;;;4.43;2.70;;;;;;;;;;4977838;28;20035;-74
2023/09/04 05:27:03;;;;;;;3.30;2.88;;;;;;;;;;4982759;28;20057;-73
2023/09/04 05:29:29;;;;;;;6.82;2.45;;;;;;;;;;4983052;28;20026;-74
2023/09/04 05:31:56;;;;;;;2.65;2.45;;;;;;;;;;4981638;28;20030;-74
2023/09/04 05:34:22;;;;;;;4.43;3.10;;;;;;;;;;4985733;28;20109;-74
2023/09/04 05:36:48;;;;;;;8.15;2.95;;;;;;;;;;4979678;28;20038;-74
2023/09/04 05:39:14;;;;;;;7.50;3.30;;;;;;;;;;4986226;28;20033;-74
2023/09/04 05:41:40;;;;;;;7.60;3.00;;;;;;;;;;4986802;28;20026;-74
2023/09/04 05:44:06;;;;;;;3.75;3.10;;;;;;;;;;4982192;28;20042;-74
2023/09/04 05:46:32;;;;;;;4.00;3.58;;;;;;;;;;4983508;28;20539;-74
2023/09/04 05:48:59;;;;;;;4.97;3.00;;;;;;;;;;4984281;28;20042;-74
2023/09/04 05:51:25;;;;;;;4.95;4.18;;;;;;;;;;4988617;28;20038;-75
2023/09/04 05:53:51;;;;;;;8.00;5.88;;;;;;;;;;4981125;28;20095;-75
2023/09/04 05:56:17;;;;;;;5.00;3.70;;;;;;;;;;4979378;28;20030;-75
2023/09/04 05:58:48;;;;;;;4.63;4.18;;;;;;;;;;4984285;28;20116;-75
2023/09/04 06:01:14;;;;;;;5.20;4.65;;;;;;;;;;4977921;28;20035;-74
2023/09/04 06:03:40;;;;;;;5.82;4.65;;;;;;;;;;4970689;28;20140;-75
2023/09/04 06:06:07;;;;;;;5.95;5.00;;;;;;;;;;4983745;28;20104;-74
2023/09/04 06:08:34;;;;;;;11.13;5.88;;;;;;;;;;4984948;28;20058;-74
2023/09/04 06:11:00;;;;;;;5.75;5.18;;;;;;;;;;4979712;28;20074;-74
2023/09/04 06:13:26;;;;;;;6.30;5.57;;;;;;;;;;4977855;28;20588;-74
2023/09/04 06:15:53;;;;;;;7.32;6.03;;;;;;;;;;4986716;28;20038;-74
2023/09/04 06:18:19;;;;;;;9.02;6.30;;;;;;;;;;4979600;28;20034;-77
2023/09/04 06:20:46;;;;;;;9.00;6.65;;;;;;;;;;4983361;28;20464;-74
2023/09/04 06:23:12;;;;;;;8.65;7.15;;;;;;;;;;4982931;28;20065;-75
2023/09/04 06:25:39;;;;;;;9.20;6.72;;;;;;;;;;4981362;28;20042;-74
2023/09/04 06:28:06;;;;;;;11.02;7.10;;;;;;;;;;4984870;28;20033;-75
2023/09/04 06:30:32;;;;;;;23.10;16.95;;;;;;;;;;4987560;28;20117;-77
2023/09/04 06:32:58;;;;;;;51.88;31.98;;;;;;;;;;4992924;28;20035;-75
2023/09/04 06:35:25;;;;;;;27.83;19.70;;;;;;;;;;4989429;28;20416;-77
2023/09/04 06:37:51;;;;;;;13.52;9.38;;;;;;;;;;4991402;28;20038;-75
2023/09/04 06:40:17;;;;;;;9.90;7.50;;;;;;;;;;4986187;28;20034;-77
2023/09/04 06:42:43;;;;;;;9.50;7.78;;;;;;;;;;4981441;28;20129;-76
2023/09/04 06:45:10;;;;;;;8.82;6.82;;;;;;;;;;4993225;28;20475;-77
2023/09/04 06:47:36;;;;;;;9.00;6.68;;;;;;;;;;4993693;28;20030;-77
2023/09/04 06:50:02;;;;;;;8.90;6.97;;;;;;;;;;4977950;28;20116;-76
2023/09/04 06:52:28;;;;;;;7.88;6.72;;;;;;;;;;4982922;28;20476;-78
2023/09/04 06:54:55;;;;;;;8.18;6.53;;;;;;;;;;4985571;28;20428;-78
2023/09/04 06:57:21;;;;;;;130.07;81.15;;;;;;;;;;4982366;28;20045;-78
2023/09/04 06:59:47;;;;;;;22.55;16.40;;;;;;;;;;4985753;28;20030;-82
2023/09/04 07:02:13;;;;;;;12.88;9.70;;;;;;;;;;5012942;28;20033;-80
2023/09/04 07:04:39;;;;;;;15.05;10.25;;;;;;;;;;4987679;28;20057;-79
2023/09/04 07:07:05;;;;;;;10.45;6.80;;;;;;;;;;5008342;28;20129;-83
2023/09/04 07:09:31;;;;;;;11.07;7.38;;;;;;;;;;5003992;28;20078;-82
2023/09/04 07:11:57;;;;;;;10.95;8.95;;;;;;;;;;4996953;28;20031;-81
2023/09/04 07:14:23;;;;;;;202.23;126.05;;;;;;;;;;4991560;28;20074;-83
2023/09/04 07:16:49;;;;;;;62.97;47.85;;;;;;;;;;4996584;28;20300;-79
2023/09/04 07:19:15;;;;;;;25.10;17.80;;;;;;;;;;4983917;28;20090;-84
2023/09/04 07:21:41;;;;;;;13.05;8.85;;;;;;;;;;4982501;28;20034;-80
2023/09/04 07:24:07;;;;;;;9.90;6.85;;;;;;;;;;4982938;28;20350;-80
2023/09/04 07:26:33;;;;;;;7.93;5.55;;;;;;;;;;4998740;28;20043;-80
2023/09/04 07:28:59;;;;;;;6.10;5.50;;;;;;;;;;5000181;28;20027;-79
2023/09/04 07:31:26;;;;;;;6.18;4.82;;;;;;;;;;4982087;28;20030;-76
2023/09/04 07:33:52;;;;;;;8.52;5.50;;;;;;;;;;4987416;28;20042;-78
2023/09/04 07:36:18;;;;;;;5.80;4.25;;;;;;;;;;4978455;28;20050;-78
2023/09/04 07:38:45;;;;;;;7.13;5.10;;;;;;;;;;4991823;28;20508;-78
2023/09/04 07:41:11;;;;;;;5.18;3.88;;;;;;;;;;4982961;28;20027;-77
2023/09/04 07:43:37;;;;;;;28.55;18.08;;;;;;;;;;4988661;28;20465;-84
2023/09/04 07:46:04;;;;;;;27.85;17.67;;;;;;;;;;4986827;28;20030;-84
2023/09/04 07:48:30;;;;;;;24.15;13.05;;;;;;;;;;4978472;28;20101;-82
2023/09/04 07:50:59;;;;;;;12.60;5.97;;;;;;;;;;4973880;28;20341;-81
2023/09/04 07:53:25;;;;;;;7.57;4.15;;;;;;;;;;4980623;28;20027;-82
2023/09/04 07:55:51;;;;;;;7.72;4.13;;;;;;;;;;4982551;28;20034;-81
2023/09/04 07:58:18;;;;;;;7.85;5.35;;;;;;;;;;4979974;28;20062;-78
2023/09/04 08:00:45;;;;;;;4.15;3.30;;;;;;;;;;4981584;28;20041;-78
2023/09/04 08:03:11;;;;;;;5.65;3.92;;;;;;;;;;4983836;28;20022;-75
2023/09/04 08:05:37;;;;;;;100.25;63.35;;;;;;;;;;4980346;28;20031;-81
2023/09/04 08:08:08;;;;;;;26.02;16.67;;;;;;;;;;4977926;28;20104;-77
2023/09/04 08:10:34;;;;;;;13.88;8.13;;;;;;;;;;4986082;28;20038;-76
2023/09/04 08:13:00;;;;;;;6.47;3.35;;;;;;;;;;4978825;28;20089;-76
2023/09/04 08:15:26;;;;;;;5.13;3.00;;;;;;;;;;4983923;28;20098;-76
2023/09/04 08:17:53;;;;;;;9.30;3.38;;;;;;;;;;4980464;28;20042;-76
2023/09/04 08:20:19;;;;;;;2.92;2.55;;;;;;;;;;4983991;28;20030;-76
2023/09/04 08:22:47;;;;;;;6.13;3.15;;;;;;;;;;4978653;28;20046;-76
2023/09/04 08:25:13;;;;;;;4.57;2.45;;;;;;;;;;4983440;28;20789;-76
2023/09/04 08:27:39;;;;;;;5.90;2.78;;;;;;;;;;4986663;28;20043;-76
2023/09/04 08:30:05;;;;;;;3.85;2.90;;;;;;;;;;4994662;28;20145;-77
2023/09/04 08:32:32;;;;;;;2.40;2.20;;;;;;;;;;4995253;28;20038;-77
2023/09/04 08:34:58;;;;;;;5.57;2.55;;;;;;;;;;4983011;28;20465;-76
2023/09/04 08:37:24;;;;;;;5.13;2.60;;;;;;;;;;4980028;28;20523;-76
2023/09/04 08:39:50;;;;;;;2.78;2.35;;;;;;;;;;4982470;28;20022;-76
2023/09/04 08:42:16;;;;;;;7.30;2.30;;;;;;;;;;4983704;28;20046;-76
2023/09/04 08:44:42;;;;;;;4.40;2.30;;;;;;;;;;4981481;28;20084;-77
2023/09/04 08:47:09;;;;;;;3.90;1.95;;;;;;;;;;4972456;28;20140;-76
2023/09/04 08:49:37;;;;;;;4.10;2.65;;;;;;;;;;4983302;28;20072;-77
2023/09/04 08:52:03;;;;;;;12.38;2.78;;;;;;;;;;4987803;28;20022;-77
2023/09/04 08:54:29;;;;;;;3.30;2.28;;;;;;;;;;4984615;28;20149;-77
2023/09/04 08:56:55;;;;;;;2.67;2.00;;;;;;;;;;4987569;28;20108;-77
2023/09/04 08:59:21;;;;;;;5.93;2.55;;;;;;;;;;4984568;28;20053;-77
2023/09/04 09:01:48;;;;;;;2.95;1.95;;;;;;;;;;4985393;28;20073;-77
2023/09/04 09:04:14;;;;;;;3.20;1.95;;;;;;;;;;4984121;28;20068;-77
2023/09/04 09:06:44;;;;;;;2.75;2.45;;;;;;;;;;4980136;28;20048;-78
2023/09/04 09:09:10;;;;;;;3.45;1.92;;;;;;;;;;4978964;28;20596;-77
2023/09/04 09:11:36;;;;;;;5.57;2.08;;;;;;;;;;4985172;28;20105;-77
2023/09/04 09:14:02;;;;;;;4.13;1.60;;;;;;;;;;4984214;28;20030;-77
2023/09/04 09:16:28;;;;;;;1.90;1.63;;;;;;;;;;4979467;28;20045;-75
2023/09/04 09:18:55;;;;;;;2.33;1.20;;;;;;;;;;4985093;28;20179;-75
2023/09/04 09:21:22;;;;;;;4.95;1.90;;;;;;;;;;4982976;28;20049;-75
2023/09/04 09:23:49;;;;;;;2.42;1.48;;;;;;;;;;4986142;28;20062;-74
2023/09/04 09:26:15;;;;;;;2.67;1.35;;;;;;;;;;4979473;28;20030;-75
2023/09/04 09:28:42;;;;;;;3.05;1.55;;;;;;;;;;4986669;28;20408;-75
2023/09/04 09:31:09;;;;;;;2.80;1.30;;;;;;;;;;4984916;28;20038;-76
2023/09/04 09:33:35;;;;;;;2.05;1.13;;;;;;;;;;4987092;28;20041;-76
2023/09/04 09:36:01;;;;;;;3.80;1.35;;;;;;;;;;4979892;28;20035;-77
2023/09/04 09:38:28;;;;;;;5.10;1.67;;;;;;;;;;4970767;28;20022;-76
2023/09/04 09:40:55;;;;;;;4.47;1.48;;;;;;;;;;4981500;28;20045;-77
2023/09/04 09:43:21;;;;;;;2.05;1.25;;;;;;;;;;4978464;28;20061;-79
2023/09/04 09:45:50;;;;;;;3.92;1.50;;;;;;;;;;4978279;28;20656;-84
2023/09/04 09:48:20;;;;;;;2.97;1.40;;;;;;;;;;4977705;28;20381;-78
2023/09/04 09:50:46;;;;;;;3.72;1.75;;;;;;;;;;4984177;28;20054;-81
2023/09/04 09:53:12;;;;;;;2.30;1.65;;;;;;;;;;4979784;28;20037;-79
2023/09/04 09:55:38;;;;;;;2.97;1.65;;;;;;;;;;4981683;28;20097;-77
2023/09/04 09:58:06;;;;;;;3.60;1.30;;;;;;;;;;4977772;28;20034;-79
2023/09/04 10:00:33;;;;;;;3.60;1.23;;;;;;;;;;4995083;28;20034;-84
2023/09/04 10:02:59;;;;;;;1.27;1.10;;;;;;;;;;4986522;28;20039;-81
2023/09/04 10:05:25;;;;;;;4.30;1.20;;;;;;;;;;4981128;28;20046;-81
2023/09/04 10:08:01;;;;;;;1.75;1.20;;;;;;;;;;4984920;28;20067;-82
2023/09/04 10:10:29;;;;;;;3.22;1.30;;;;;;;;;;4983805;28;20026;-82
2023/09/04 10:12:56;;;;;;;4.78;1.30;;;;;;;;;;4985420;28;20030;-80
2023/09/04 10:15:27;;;;;;;2.88;1.13;;;;;;;;;;4988491;28;20481;-80
2023/09/04 10:17:58;;;;;;;2.77;1.30;;;;;;;;;;4986830;28;20037;-81
2023/09/04 10:20:25;;;;;;;1.50;1.30;;;;;;;;;;4978716;28;20030;-81
2023/09/04 10:22:56;;;;;;;2.55;1.15;;;;;;;;;;4983733;28;20493;-85
2023/09/04 10:25:39;;;;;;;2.05;0.77;;;;;;;;;;4983946;28;20034;-83
2023/09/04 10:28:09;;;;;;;2.97;1.30;;;;;;;;;;4978733;28;20465;-81
2023/09/04 10:30:37;;;;;;;2.17;1.00;;;;;;;;;;4982606;28;20058;-80
2023/09/04 10:33:03;;;;;;;5.65;1.40;;;;;;;;;;4977023;28;20753;-81
2023/09/04 10:35:29;;;;;;;1.65;1.27;;;;;;;;;;4979311;28;20114;-82
2023/09/04 10:37:57;;;;;;;1.95;1.20;;;;;;;;;;4986578;28;20038;-79
2023/09/04 10:40:23;;;;;;;5.60;4.10;;;;;;;;;;4983483;28;20101;-80
2023/09/04 10:42:49;;;;;;;7.03;3.53;;;;;;;;;;4981357;28;20030;-81
2023/09/04 10:45:18;;;;;;;5.32;1.40;;;;;;;;;;4974404;28;20645;-76
2023/09/04 10:47:48;;;;;;;1.65;1.42;;;;;;;;;;5000039;28;20102;-76
2023/09/04 10:50:27;;;;;;;1.45;1.20;;;;;;;;;;4984837;28;20041;-76
2023/09/04 10:52:53;;;;;;;2.03;1.13;;;;;;;;;;4988742;28;20492;-76
2023/09/04 10:55:19;;;;;;;1.90;1.17;;;;;;;;;;4985018;28;20029;-76
2023/09/04 10:57:55;;;;;;;3.70;1.25;;;;;;;;;;4970441;28;20046;-77
2023/09/04 11:00:32;;;;;;;2.38;1.38;;;;;;;;;;4986935;28;20030;-78
2023/09/04 11:03:12;;;;;;;1.70;1.20;;;;;;;;;;4979778;28;20366;-77
2023/09/04 11:05:57;;;;;;;2.47;1.35;;;;;;;;;;4983556;28;20084;-76
2023/09/04 11:08:26;;;;;;;1.88;1.27;;;;;;;;;;4981952;28;20050;-76
2023/09/04 11:10:59;;;;;;;3.05;1.30;;;;;;;;;;4985862;28;20106;-76
2023/09/04 11:13:26;;;;;;;2.72;1.17;;;;;;;;;;4989079;28;20026;-76
2023/09/04 11:15:56;;;;;;;4.22;1.40;;;;;;;;;;4987100;28;20042;-76
2023/09/04 11:18:22;;;;;;;2.72;1.60;;;;;;;;;;4981892;28;20030;-76
2023/09/04 11:20:54;;;;;;;2.95;1.30;;;;;;;;;;4990845;28;20031;-75
2023/09/04 11:23:20;;;;;;;3.60;1.27;;;;;;;;;;4981175;28;20071;-75
2023/09/04 11:25:46;;;;;;;1.38;1.08;;;;;;;;;;4985661;28;20167;-76
2023/09/04 11:28:13;;;;;;;2.38;1.42;;;;;;;;;;4990410;28;20043;-75
2023/09/04 11:30:39;;;;;;;3.22;1.20;;;;;;;;;;4968570;28;20058;-75
2023/09/04 11:33:05;;;;;;;3.08;2.17;;;;;;;;;;4984785;28;20030;-76
2023/09/04 11:35:31;;;;;;;3.25;1.88;;;;;;;;;;4983799;28;20030;-76
2023/09/04 11:37:58;;;;;;;2.80;1.23;;;;;;;;;;4988906;28;20031;-75
2023/09/04 11:40:31;;;;;;;1.92;1.23;;;;;;;;;;4990612;28;20056;-75
2023/09/04 11:42:57;;;;;;;1.50;1.10;;;;;;;;;;4985772;28;20031;-75
2023/09/04 11:45:25;;;;;;;1.35;1.17;;;;;;;;;;4987519;28;20046;-75
2023/09/04 11:47:51;;;;;;;3.10;1.20;;;;;;;;;;4987584;28;20681;-76
2023/09/04 11:50:17;;;;;;;2.60;1.20;;;;;;;;;;4989631;28;20030;-77
2023/09/04 11:52:43;;;;;;;4.05;1.20;;;;;;;;;;4982085;28;20089;-76
2023/09/04 11:55:11;;;;;;;2.20;1.23;;;;;;;;;;4987460;28;20603;-76
2023/09/04 11:57:37;;;;;;;1.50;0.95;;;;;;;;;;4988520;28;20089;-76
2023/09/04 12:00:05;;;;;;;3.75;1.75;;;;;;;;;;4982916;28;20489;-77
2023/09/04 12:02:31;;;;;;;1.10;1.00;;;;;;;;;;4989866;28;20085;-76
2023/09/04 12:04:59;;;;;;;1.85;1.30;;;;;;;;;;4987718;28;20061;-77
2023/09/04 12:07:27;;;;;;;4.32;1.00;;;;;;;;;;4983570;28;20047;-76
2023/09/04 12:09:53;;;;;;;1.75;1.00;;;;;;;;;;4985641;28;20481;-76
2023/09/04 12:12:20;;;;;;;4.35;1.20;;;;;;;;;;4985219;28;20058;-76
2023/09/04 12:14:46;;;;;;;6.05;1.10;;;;;;;;;;4984622;28;20030;-76
2023/09/04 12:17:13;;;;;;;1.90;1.05;;;;;;;;;;4986433;28;20516;-76
2023/09/04 12:19:39;;;;;;;2.80;0.90;;;;;;;;;;4980311;28;20042;-77
2023/09/04 12:22:14;;;;;;;2.55;1.05;;;;;;;;;;4986002;28;20043;-75
2023/09/04 12:24:41;;;;;;;2.10;0.90;;;;;;;;;;4986786;28;20026;-75
2023/09/04 12:27:07;;;;;;;2.40;1.15;;;;;;;;;;4984268;28;20117;-76
2023/09/04 12:29:34;;;;;;;2.78;0.93;;;;;;;;;;4985215;28;20027;-75
2023/09/04 12:32:02;;;;;;;1.48;1.00;;;;;;;;;;4984022;28;20026;-75
2023/09/04 12:34:28;;;;;;;2.17;0.95;;;;;;;;;;4987458;28;20502;-75
2023/09/04 12:36:58;;;;;;;1.13;0.90;;;;;;;;;;4983431;28;20791;-75
2023/09/04 12:39:24;;;;;;;2.85;1.08;;;;;;;;;;4982148;28;20039;-75
2023/09/04 12:41:58;;;;;;;1.40;1.10;;;;;;;;;;4977323;28;20558;-76
2023/09/04 12:44:24;;;;;;;1.25;0.80;;;;;;;;;;4977085;28;20041;-81
2023/09/04 12:46:50;;;;;;;0.85;0.80;;;;;;;;;;4983391;28;20046;-81
2023/09/04 12:49:16;;;;;;;2.78;1.20;;;;;;;;;;4988908;28;20054;-79
2023/09/04 12:51:43;;;;;;;2.85;1.60;;;;;;;;;;4991701;28;20022;-80
2023/09/04 12:54:09;;;;;;;2.22;1.00;;;;;;;;;;4978115;28;20022;-84
2023/09/04 12:56:35;;;;;;;123.50;106.10;;;;;;;;;;4996678;28;20400;-80
2023/09/04 12:59:01;;;;;;;2.08;1.67;;;;;;;;;;4982828;28;20101;-81
2023/09/04 13:01:27;;;;;;;1.80;1.35;;;;;;;;;;4989192;28;20082;-81
2023/09/04 13:03:53;;;;;;;2.08;1.00;;;;;;;;;;4997028;28;20039;-82
2023/09/04 13:06:19;;;;;;;1.35;0.70;;;;;;;;;;4989723;28;20043;-80
2023/09/04 13:08:46;;;;;;;86.28;71.53;;;;;;;;;;4984265;28;20264;-84
2023/09/04 13:11:12;;;;;;;12.98;11.27;;;;;;;;;;4984219;28;20772;-85
2023/09/04 13:13:41;;;;;;;4.70;3.35;;;;;;;;;;4982502;28;20114;-83
2023/09/04 13:16:07;;;;;;;3.15;1.08;;;;;;;;;;4981997;28;20037;-78
2023/09/04 13:18:33;;;;;;;2.75;1.17;;;;;;;;;;4982647;28;20117;-82
2023/09/04 13:21:00;;;;;;;1.52;1.20;;;;;;;;;;4970537;28;20035;-82
2023/09/04 13:23:27;;;;;;;0.95;0.70;;;;;;;;;;4983053;28;20656;-81
2023/09/04 13:25:53;;;;;;;1.45;0.80;;;;;;;;;;4985764;28;20031;-82
2023/09/04 13:28:19;;;;;;;1.40;1.13;;;;;;;;;;4982464;28;20049;-80
2023/09/04 13:30:45;;;;;;;1.90;1.10;;;;;;;;;;4986821;28;20096;-80
2023/09/04 13:33:11;;;;;;;1.23;0.88;;;;;;;;;;4977971;28;20037;-79
2023/09/04 13:35:37;;;;;;;2.95;1.30;;;;;;;;;;4985171;28;20041;-79
2023/09/04 13:38:03;;;;;;;2.05;0.90;;;;;;;;;;4983914;28;20027;-81
2023/09/04 13:40:31;;;;;;;2.40;1.35;;;;;;;;;;4984671;28;20037;-83
2023/09/04 13:42:57;;;;;;;1.65;1.27;;;;;;;;;;4973794;28;20030;-75
2023/09/04 13:45:23;;;;;;;3.63;2.55;;;;;;;;;;4984640;28;20037;-77
2023/09/04 13:47:49;;;;;;;1.70;1.10;;;;;;;;;;4984972;28;20443;-75
2023/09/04 13:50:15;;;;;;;1.67;0.85;;;;;;;;;;4984069;28;20101;-77
2023/09/04 13:52:41;;;;;;;1.42;0.70;;;;;;;;;;4982021;28;20038;-76
2023/09/04 13:55:08;;;;;;;1.75;1.10;;;;;;;;;;4978870;28;20034;-75
2023/09/04 13:57:34;;;;;;;1.92;1.15;;;;;;;;;;4987866;28;20042;-75
2023/09/04 14:00:00;;;;;;;1.50;0.80;;;;;;;;;;4983387;28;20365;-76
2023/09/04 14:02:26;;;;;;;1.88;0.90;;;;;;;;;;4978723;28;20033;-78
2023/09/04 14:04:52;;;;;;;5.18;0.90;;;;;;;;;;4984952;28;20504;-82
2023/09/04 14:07:18;;;;;;;2.95;0.98;;;;;;;;;;4986228;28;20042;-85
2023/09/04 14:09:44;;;;;;;1.55;0.95;;;;;;;;;;4982938;28;20069;-80
2023/09/04 14:12:10;;;;;;;2.13;0.80;;;;;;;;;;4984563;28;20038;-81
2023/09/04 14:14:37;;;;;;;4.53;1.40;;;;;;;;;;4987453;28;20061;-82
2023/09/04 14:17:04;;;;;;;1.48;0.88;;;;;;;;;;4980029;28;20034;-84
2023/09/04 14:19:30;;;;;;;1.02;0.88;;;;;;;;;;4977120;28;20079;-76
2023/09/04 14:21:57;;;;;;;1.92;1.00;;;;;;;;;;4986963;28;20058;-76
2023/09/04 14:24:23;;;;;;;1.33;0.80;;;;;;;;;;4984950;28;20037;-76
2023/09/04 14:26:49;;;;;;;3.97;1.08;;;;;;;;;;4981878;28;20035;-76
2023/09/04 14:29:16;;;;;;;0.95;0.70;;;;;;;;;;4985951;28;20053;-76
2023/09/04 14:31:42;;;;;;;6.63;1.70;;;;;;;;;;4988918;28;20040;-76
2023/09/04 14:34:08;;;;;;;2.38;0.80;;;;;;;;;;4983210;28;20068;-76
2023/09/04 14:36:34;;;;;;;3.30;1.13;;;;;;;;;;4977533;28;20097;-76
2023/09/04 14:39:00;;;;;;;2.53;1.00;;;;;;;;;;4979210;28;20119;-76